createdAt,value
2017-05-03T00:00:26.289Z,0
2017-05-03T00:01:36.471Z,0
2017-05-03T00:02:46.400Z,0
2017-05-03T00:03:56.636Z,0
2017-05-03T00:05:07.082Z,0
2017-05-03T00:06:17.203Z,0
2017-05-03T00:07:27.344Z,0
2017-05-03T00:08:37.500Z,0
2017-05-03T00:09:47.714Z,0
2017-05-03T00:10:58.150Z,0
2017-05-03T00:12:08.292Z,0
2017-05-03T00:13:18.420Z,0
2017-05-03T00:14:28.574Z,0
2017-05-03T00:15:38.701Z,0
2017-05-03T00:16:49.119Z,0
2017-05-03T00:17:59.244Z,0
2017-05-03T00:19:09.450Z,0
2017-05-03T00:20:19.580Z,0
2017-05-03T00:21:29.711Z,0
2017-05-03T00:22:40.200Z,0
2017-05-03T00:23:50.321Z,0
2017-05-03T00:25:00.451Z,0
2017-05-03T00:26:10.275Z,0
2017-05-03T00:27:20.525Z,0
2017-05-03T00:28:30.950Z,0
2017-05-03T00:29:41.159Z,0
2017-05-03T00:30:51.291Z,0
2017-05-03T00:32:01.429Z,0
2017-05-03T00:33:11.707Z,0
2017-05-03T00:34:22.186Z,0
2017-05-03T00:35:32.313Z,0
2017-05-03T00:36:42.483Z,0
2017-05-03T00:37:52.601Z,0
2017-05-03T00:39:02.766Z,0
2017-05-03T00:40:13.263Z,0
2017-05-03T00:41:23.534Z,0
2017-05-03T00:42:33.653Z,0
2017-05-03T00:43:43.781Z,0
2017-05-03T00:44:53.993Z,0
2017-05-03T00:46:04.068Z,0
2017-05-03T00:47:14.198Z,0
2017-05-03T00:48:24.362Z,0
2017-05-03T00:49:34.520Z,0
2017-05-03T00:50:44.671Z,0
2017-05-03T00:51:55.193Z,0
2017-05-03T00:53:05.324Z,0
2017-05-03T00:54:15.541Z,0
2017-05-03T00:55:25.676Z,0
2017-05-03T00:56:35.859Z,0
2017-05-03T00:57:46.322Z,0
2017-05-03T00:58:56.451Z,0
2017-05-03T01:00:07.487Z,0
2017-05-03T01:01:17.695Z,0
2017-05-03T01:02:27.818Z,0
2017-05-03T01:03:38.241Z,0
2017-05-03T01:04:48.085Z,0
2017-05-03T01:05:58.317Z,0
2017-05-03T01:07:08.466Z,0
2017-05-03T01:08:18.598Z,0
2017-05-03T01:09:29.068Z,0
2017-05-03T01:10:39.426Z,0
2017-05-03T01:11:49.558Z,0
2017-05-03T01:12:59.693Z,0
2017-05-03T01:14:09.824Z,0
2017-05-03T01:15:20.252Z,0
2017-05-03T01:16:30.420Z,0
2017-05-03T01:17:40.555Z,0
2017-05-03T01:18:50.832Z,0
2017-05-03T01:20:01.052Z,0
2017-05-03T01:21:11.517Z,0
2017-05-03T01:22:21.675Z,0
2017-05-03T01:23:31.809Z,0
2017-05-03T01:24:41.942Z,0
2017-05-03T01:25:52.099Z,0
2017-05-03T01:27:02.555Z,0
2017-05-03T01:28:12.738Z,0
2017-05-03T01:29:22.910Z,0
2017-05-03T01:30:33.077Z,0
2017-05-03T01:31:43.210Z,0
2017-05-03T01:32:53.679Z,0
2017-05-03T01:34:04.102Z,0
2017-05-03T01:35:14.223Z,0
2017-05-03T01:36:24.426Z,0
2017-05-03T01:37:34.551Z,0
2017-05-03T01:38:45.028Z,0
2017-05-03T01:39:55.236Z,0
2017-05-03T01:41:05.364Z,0
2017-05-03T01:42:15.664Z,0
2017-05-03T01:43:25.795Z,0
2017-05-03T01:44:36.248Z,0
2017-05-03T01:45:46.445Z,0
2017-05-03T01:46:56.566Z,0
2017-05-03T01:48:06.687Z,0
2017-05-03T01:49:16.894Z,0
2017-05-03T01:50:27.328Z,0
2017-05-03T01:51:37.523Z,0
2017-05-03T01:52:47.674Z,0
2017-05-03T01:53:57.822Z,0
2017-05-03T01:55:07.954Z,0
2017-05-03T01:56:18.384Z,0
2017-05-03T01:57:28.511Z,0
2017-05-03T01:58:38.638Z,0
2017-05-03T01:59:48.782Z,0
2017-05-03T02:00:58.915Z,0
2017-05-03T02:02:09.339Z,0
2017-05-03T02:03:19.524Z,0
2017-05-03T02:04:29.699Z,0
2017-05-03T02:05:39.901Z,0
2017-05-03T02:06:50.170Z,0
2017-05-03T02:08:00.612Z,0
2017-05-03T02:09:13.993Z,0
2017-05-03T02:10:24.117Z,0
2017-05-03T02:11:34.292Z,0
2017-05-03T02:12:44.417Z,0
2017-05-03T02:13:54.846Z,0
2017-05-03T02:15:04.991Z,0
2017-05-03T02:16:15.117Z,0
2017-05-03T02:17:25.248Z,0
2017-05-03T02:18:35.376Z,0
2017-05-03T02:19:45.810Z,0
2017-05-03T02:20:55.966Z,0
2017-05-03T02:22:05.813Z,0
2017-05-03T02:23:16.007Z,0
2017-05-03T02:24:26.173Z,0
2017-05-03T02:25:36.600Z,0
2017-05-03T02:26:46.808Z,0
2017-05-03T02:27:56.949Z,0
2017-05-03T02:29:07.220Z,0
2017-05-03T02:30:16.692Z,0
2017-05-03T02:31:26.833Z,0
2017-05-03T02:32:36.956Z,0
2017-05-03T02:33:46.817Z,0
2017-05-03T02:34:56.980Z,0
2017-05-03T02:36:07.133Z,0
2017-05-03T02:37:17.611Z,0
2017-05-03T02:38:27.740Z,0
2017-05-03T02:39:37.893Z,0
2017-05-03T02:40:48.025Z,0
2017-05-03T02:41:58.149Z,0
2017-05-03T02:43:08.652Z,0
2017-05-03T02:44:18.855Z,0
2017-05-03T02:45:29.040Z,0
2017-05-03T02:46:39.164Z,0
2017-05-03T02:47:49.328Z,0
2017-05-03T02:48:59.869Z,0
2017-05-03T02:50:10.019Z,0
2017-05-03T02:51:20.140Z,0
2017-05-03T02:52:30.336Z,0
2017-05-03T02:53:40.468Z,0
2017-05-03T02:54:50.891Z,0
2017-05-03T02:56:01.082Z,0
2017-05-03T02:57:11.208Z,0
2017-05-03T02:58:21.415Z,0
2017-05-03T02:59:31.210Z,0
2017-05-03T03:00:41.654Z,0
2017-05-03T03:01:51.834Z,0
2017-05-03T03:03:01.975Z,0
2017-05-03T03:04:12.149Z,0
2017-05-03T03:05:22.432Z,0
2017-05-03T03:06:32.867Z,0
2017-05-03T03:07:43.027Z,0
2017-05-03T03:08:53.164Z,0
2017-05-03T03:10:03.340Z,0
2017-05-03T03:11:13.522Z,0
2017-05-03T03:12:23.953Z,0
2017-05-03T03:13:34.081Z,0
2017-05-03T03:14:44.211Z,0
2017-05-03T03:15:54.331Z,0
2017-05-03T03:17:04.455Z,0
2017-05-03T03:18:14.975Z,0
2017-05-03T03:19:25.203Z,0
2017-05-03T03:20:35.418Z,0
2017-05-03T03:21:45.549Z,0
2017-05-03T03:22:55.757Z,0
2017-05-03T03:24:06.250Z,0
2017-05-03T03:25:16.412Z,0
2017-05-03T03:26:26.577Z,0
2017-05-03T03:27:36.736Z,0
2017-05-03T03:28:46.920Z,0
2017-05-03T03:29:57.357Z,0
2017-05-03T03:31:07.491Z,5
2017-05-03T03:32:17.618Z,5
2017-05-03T03:33:27.766Z,5
2017-05-03T03:34:38.120Z,5
2017-05-03T03:35:48.510Z,5
2017-05-03T03:36:58.643Z,5
2017-05-03T03:38:08.781Z,10
2017-05-03T03:39:18.945Z,10
2017-05-03T03:40:28.784Z,10
2017-05-03T03:41:39.185Z,10
2017-05-03T03:42:49.401Z,15
2017-05-03T03:43:59.597Z,15
2017-05-03T03:45:09.826Z,15
2017-05-03T03:46:19.998Z,20
2017-05-03T03:47:30.415Z,20
2017-05-03T03:48:40.555Z,20
2017-05-03T03:49:50.690Z,25
2017-05-03T03:51:00.810Z,25
2017-05-03T03:52:10.940Z,25
2017-05-03T03:53:21.411Z,30
2017-05-03T03:54:31.227Z,30
2017-05-03T03:55:41.367Z,30
2017-05-03T03:56:50.899Z,35
2017-05-03T03:58:01.030Z,35
2017-05-03T03:59:11.528Z,35
2017-05-03T04:00:21.678Z,40
2017-05-03T04:01:31.807Z,40
2017-05-03T04:02:42.029Z,40
2017-05-03T04:03:52.176Z,45
2017-05-03T04:05:02.619Z,45
2017-05-03T04:06:12.748Z,50
2017-05-03T04:07:23.022Z,50
2017-05-03T04:08:32.810Z,55
2017-05-03T04:09:42.946Z,55
2017-05-03T04:10:53.368Z,60
2017-05-03T04:12:03.526Z,60
2017-05-03T04:13:13.654Z,65
2017-05-03T04:14:23.887Z,65
2017-05-03T04:15:34.065Z,70
2017-05-03T04:16:44.448Z,70
2017-05-03T04:17:54.647Z,70
2017-05-03T04:19:04.798Z,75
2017-05-03T04:20:14.968Z,75
2017-05-03T04:21:25.159Z,80
2017-05-03T04:22:35.595Z,80
2017-05-03T04:23:45.756Z,85
2017-05-03T04:24:55.875Z,90
2017-05-03T04:26:06.019Z,90
2017-05-03T04:27:16.183Z,95
2017-05-03T04:28:26.655Z,95
2017-05-03T04:29:36.832Z,95
2017-05-03T04:30:46.961Z,95
2017-05-03T04:31:57.084Z,100
2017-05-03T04:33:07.251Z,100
2017-05-03T04:34:17.749Z,100
2017-05-03T04:35:27.897Z,105
2017-05-03T04:36:38.029Z,105
2017-05-03T04:37:48.208Z,105
2017-05-03T04:38:58.338Z,105
2017-05-03T04:40:08.793Z,105
2017-05-03T04:41:19.180Z,105
2017-05-03T04:42:29.316Z,105
2017-05-03T04:43:39.462Z,105
2017-05-03T04:44:49.666Z,105
2017-05-03T04:46:00.131Z,105
2017-05-03T04:47:10.255Z,105
2017-05-03T04:48:20.401Z,110
2017-05-03T04:49:30.529Z,115
2017-05-03T04:50:40.733Z,115
2017-05-03T04:51:51.125Z,125
2017-05-03T04:53:00.925Z,130
2017-05-03T04:54:11.112Z,140
2017-05-03T04:55:21.237Z,145
2017-05-03T04:56:31.369Z,145
2017-05-03T04:57:41.435Z,150
2017-05-03T04:58:51.607Z,150
2017-05-03T05:00:01.766Z,155
2017-05-03T05:01:11.942Z,155
2017-05-03T05:02:22.058Z,160
2017-05-03T05:03:32.593Z,160
2017-05-03T05:04:42.725Z,160
2017-05-03T05:05:52.976Z,160
2017-05-03T05:07:03.121Z,160
2017-05-03T05:08:13.277Z,165
2017-05-03T05:09:23.669Z,165
2017-05-03T05:10:33.799Z,170
2017-05-03T05:11:43.921Z,175
2017-05-03T05:12:54.119Z,180
2017-05-03T05:14:04.288Z,185
2017-05-03T05:15:14.711Z,185
2017-05-03T05:16:24.877Z,185
2017-05-03T05:17:34.999Z,190
2017-05-03T05:18:45.152Z,185
2017-05-03T05:19:55.303Z,190
2017-05-03T05:21:05.805Z,190
2017-05-03T05:22:15.966Z,195
2017-05-03T05:23:26.106Z,195
2017-05-03T05:24:36.322Z,195
2017-05-03T05:25:46.490Z,195
2017-05-03T05:26:56.925Z,180
2017-05-03T05:28:07.155Z,185
2017-05-03T05:29:17.395Z,195
2017-05-03T05:30:27.548Z,180
2017-05-03T05:31:37.675Z,180
2017-05-03T05:32:48.122Z,185
2017-05-03T05:33:58.253Z,195
2017-05-03T05:35:08.449Z,210
2017-05-03T05:36:18.631Z,215
2017-05-03T05:37:28.847Z,215
2017-05-03T05:38:39.255Z,215
2017-05-03T05:39:49.385Z,215
2017-05-03T05:40:59.581Z,205
2017-05-03T05:42:09.751Z,220
2017-05-03T05:43:19.888Z,230
2017-05-03T05:44:30.281Z,215
2017-05-03T05:45:40.629Z,230
2017-05-03T05:46:50.798Z,240
2017-05-03T05:48:00.980Z,255
2017-05-03T05:49:11.151Z,265
2017-05-03T05:50:21.635Z,270
2017-05-03T05:51:31.837Z,275
2017-05-03T05:52:42.084Z,280
2017-05-03T05:53:52.219Z,280
2017-05-03T05:55:02.347Z,285
2017-05-03T05:56:12.769Z,285
2017-05-03T05:57:23.019Z,285
2017-05-03T05:58:33.254Z,285
2017-05-03T05:59:43.408Z,285
2017-05-03T06:00:53.606Z,290
2017-05-03T06:02:04.076Z,290
2017-05-03T06:03:14.295Z,295
2017-05-03T06:04:24.494Z,305
2017-05-03T06:05:34.333Z,310
2017-05-03T06:06:44.465Z,320
2017-05-03T06:07:54.955Z,320
2017-05-03T06:09:05.125Z,315
2017-05-03T06:10:15.264Z,320
2017-05-03T06:11:25.412Z,320
2017-05-03T06:12:35.566Z,320
2017-05-03T06:13:46.132Z,320
2017-05-03T06:14:56.342Z,315
2017-05-03T06:16:06.545Z,325
2017-05-03T06:17:16.731Z,330
2017-05-03T06:18:26.876Z,330
2017-05-03T06:19:37.271Z,340
2017-05-03T06:20:47.402Z,340
2017-05-03T06:21:57.537Z,355
2017-05-03T06:23:07.678Z,365
2017-05-03T06:24:17.809Z,365
2017-05-03T06:25:28.251Z,375
2017-05-03T06:26:38.402Z,380
2017-05-03T06:27:48.527Z,390
2017-05-03T06:28:58.669Z,395
2017-05-03T06:30:08.811Z,390
2017-05-03T06:31:19.252Z,390
2017-05-03T06:32:29.437Z,370
2017-05-03T06:33:39.841Z,385
2017-05-03T06:34:49.974Z,380
2017-05-03T06:36:00.152Z,385
2017-05-03T06:37:10.583Z,390
2017-05-03T06:38:20.775Z,380
2017-05-03T06:39:30.947Z,375
2017-05-03T06:40:41.098Z,375
2017-05-03T06:41:51.404Z,375
2017-05-03T06:43:01.901Z,370
2017-05-03T06:44:12.212Z,365
2017-05-03T06:45:22.350Z,355
2017-05-03T06:46:32.571Z,375
2017-05-03T06:47:42.774Z,395
2017-05-03T06:48:53.273Z,385
2017-05-03T06:50:03.442Z,405
2017-05-03T06:51:13.722Z,405
2017-05-03T06:52:23.879Z,405
2017-05-03T06:53:34.051Z,405
2017-05-03T06:54:44.537Z,420
2017-05-03T06:55:54.694Z,395
2017-05-03T06:57:04.877Z,435
2017-05-03T06:58:15.153Z,470
2017-05-03T06:59:25.326Z,455
2017-05-03T07:00:35.818Z,455
2017-05-03T07:01:46.034Z,445
2017-05-03T07:02:56.323Z,430
2017-05-03T07:04:06.620Z,425
2017-05-03T07:05:16.757Z,470
2017-05-03T07:06:27.230Z,455
2017-05-03T07:07:37.393Z,505
2017-05-03T07:08:47.647Z,460
2017-05-03T07:09:57.862Z,425
2017-05-03T07:11:07.991Z,415
2017-05-03T07:12:18.425Z,420
2017-05-03T07:13:28.722Z,410
2017-05-03T07:14:38.855Z,435
2017-05-03T07:15:48.993Z,440
2017-05-03T07:16:59.138Z,460
2017-05-03T07:18:09.241Z,485
2017-05-03T07:19:19.371Z,470
2017-05-03T07:20:29.505Z,465
2017-05-03T07:21:39.663Z,475
2017-05-03T07:22:49.825Z,485
2017-05-03T07:24:00.288Z,480
2017-05-03T07:25:10.534Z,505
2017-05-03T07:26:20.783Z,495
2017-05-03T07:27:30.908Z,480
2017-05-03T07:28:41.170Z,475
2017-05-03T07:29:51.704Z,480
2017-05-03T07:31:01.954Z,480
2017-05-03T07:32:12.105Z,475
2017-05-03T07:33:22.275Z,465
2017-05-03T07:34:32.429Z,485
2017-05-03T07:35:42.836Z,450
2017-05-03T07:36:52.966Z,490
2017-05-03T07:38:03.141Z,510
2017-05-03T07:39:13.350Z,520
2017-05-03T07:40:23.482Z,515
2017-05-03T07:41:33.920Z,540
2017-05-03T07:42:44.081Z,525
2017-05-03T07:43:54.213Z,505
2017-05-03T07:45:04.348Z,625
2017-05-03T07:46:14.519Z,680
2017-05-03T07:47:25.090Z,660
2017-05-03T07:48:35.245Z,545
2017-05-03T07:49:45.364Z,510
2017-05-03T07:50:55.521Z,580
2017-05-03T07:52:05.337Z,585
2017-05-03T07:53:15.462Z,570
2017-05-03T07:54:25.296Z,550
2017-05-03T07:55:35.427Z,570
2017-05-03T07:56:45.234Z,600
2017-05-03T07:57:55.377Z,570
2017-05-03T07:59:05.929Z,580
2017-05-03T08:00:15.845Z,680
2017-05-03T08:01:26.190Z,590
2017-05-03T08:02:36.395Z,575
2017-05-03T08:03:46.548Z,725
2017-05-03T08:04:56.659Z,640
2017-05-03T08:06:06.434Z,700
2017-05-03T08:07:16.575Z,775
2017-05-03T08:08:27.205Z,715
2017-05-03T08:09:37.761Z,730
2017-05-03T08:10:48.094Z,850
2017-05-03T08:11:59.020Z,990
2017-05-03T08:13:09.747Z,995
2017-05-03T08:14:20.640Z,710
2017-05-03T08:15:31.579Z,710
2017-05-03T08:16:42.759Z,970
2017-05-03T08:17:53.660Z,910
2017-05-03T08:19:04.508Z,905
2017-05-03T08:20:15.409Z,955
2017-05-03T08:21:26.372Z,1205
2017-05-03T08:22:37.491Z,805
2017-05-03T08:23:48.349Z,805
2017-05-03T08:24:59.252Z,830
2017-05-03T08:26:10.206Z,750
2017-05-03T08:27:21.083Z,735
2017-05-03T08:28:32.154Z,860
2017-05-03T08:29:43.056Z,1050
2017-05-03T08:30:53.946Z,1010
2017-05-03T08:32:04.436Z,1230
2017-05-03T08:33:15.279Z,1215
2017-05-03T08:34:26.402Z,1185
2017-05-03T08:35:37.060Z,1110
2017-05-03T08:36:47.913Z,1575
2017-05-03T08:37:58.777Z,1215
2017-05-03T08:39:09.642Z,1285
2017-05-03T08:40:20.835Z,1910
2017-05-03T08:41:31.723Z,1140
2017-05-03T08:42:42.558Z,2015
2017-05-03T08:43:53.383Z,1975
2017-05-03T08:45:04.300Z,1325
2017-05-03T08:46:15.482Z,965
2017-05-03T08:47:26.309Z,955
2017-05-03T08:48:37.483Z,1530
2017-05-03T08:49:48.376Z,1240
2017-05-03T08:50:59.221Z,2775
2017-05-03T08:52:10.525Z,1185
2017-05-03T08:53:21.372Z,1120
2017-05-03T08:54:32.237Z,925
2017-05-03T08:55:43.134Z,825
2017-05-03T08:56:53.943Z,800
2017-05-03T08:58:04.776Z,1025
2017-05-03T08:59:15.683Z,930
2017-05-03T09:00:26.750Z,915
2017-05-03T09:01:37.247Z,960
2017-05-03T09:02:48.168Z,1070
2017-05-03T09:03:59.250Z,830
2017-05-03T09:05:09.777Z,875
2017-05-03T09:06:20.368Z,815
2017-05-03T09:07:30.798Z,780
2017-05-03T09:08:41.642Z,795
2017-05-03T09:09:52.394Z,875
2017-05-03T09:11:03.242Z,1065
2017-05-03T09:12:14.090Z,1375
2017-05-03T09:13:24.909Z,2000
2017-05-03T09:14:35.288Z,1360
2017-05-03T09:15:46.374Z,1405
2017-05-03T09:16:57.324Z,1350
2017-05-03T09:18:08.259Z,1625
2017-05-03T09:19:19.237Z,1390
2017-05-03T09:20:29.884Z,1530
2017-05-03T09:21:41.020Z,1375
2017-05-03T09:22:51.920Z,1430
2017-05-03T09:24:02.770Z,1155
2017-05-03T09:25:13.611Z,1035
2017-05-03T09:26:24.511Z,950
2017-05-03T09:27:35.322Z,885
2017-05-03T09:28:45.869Z,775
2017-05-03T09:29:56.728Z,935
2017-05-03T09:31:07.612Z,2170
2017-05-03T09:32:18.455Z,950
2017-05-03T09:33:29.220Z,985
2017-05-03T09:34:40.056Z,1010
2017-05-03T09:35:50.888Z,820
2017-05-03T09:37:01.737Z,705
2017-05-03T09:38:12.637Z,920
2017-05-03T09:39:23.848Z,895
2017-05-03T09:40:34.411Z,815
2017-05-03T09:41:45.253Z,795
2017-05-03T09:42:56.114Z,1010
2017-05-03T09:44:07.045Z,805
2017-05-03T09:45:18.179Z,745
2017-05-03T09:46:29.034Z,980
2017-05-03T09:47:39.880Z,1045
2017-05-03T09:48:50.851Z,1160
2017-05-03T09:50:01.432Z,1070
2017-05-03T09:51:12.287Z,1085
2017-05-03T09:52:22.392Z,3225
2017-05-03T09:53:32.821Z,1465
2017-05-03T09:54:43.291Z,2765
2017-05-03T09:55:54.298Z,1595
2017-05-03T09:57:04.623Z,2080
2017-05-03T09:58:15.111Z,1775
2017-05-03T09:59:25.954Z,1380
2017-05-03T10:00:36.837Z,2795
2017-05-03T10:01:47.410Z,2060
2017-05-03T10:02:58.245Z,1360
2017-05-03T10:04:09.088Z,1075
2017-05-03T10:05:19.928Z,1280
2017-05-03T10:06:30.466Z,1080
2017-05-03T10:07:41.356Z,865
2017-05-03T10:08:52.526Z,915
2017-05-03T10:10:03.451Z,810
2017-05-03T10:11:13.837Z,820
2017-05-03T10:12:24.738Z,915
2017-05-03T10:13:35.607Z,1110
2017-05-03T10:14:46.571Z,1755
2017-05-03T10:15:57.477Z,2200
2017-05-03T10:17:08.342Z,2505
2017-05-03T10:18:19.190Z,2580
2017-05-03T10:19:30.036Z,1560
2017-05-03T10:20:40.400Z,3285
2017-05-03T10:21:51.298Z,3325
2017-05-03T10:23:02.156Z,3545
2017-05-03T10:24:12.671Z,3895
2017-05-03T10:25:23.071Z,3560
2017-05-03T10:26:34.188Z,3545
2017-05-03T10:27:44.735Z,1510
2017-05-03T10:28:55.333Z,1245
2017-05-03T10:30:06.227Z,1645
2017-05-03T10:31:17.102Z,3035
2017-05-03T10:32:27.856Z,1305
2017-05-03T10:33:38.476Z,1425
2017-05-03T10:34:49.235Z,3450
2017-05-03T10:36:00.131Z,2960
2017-05-03T10:37:10.975Z,1145
2017-05-03T10:38:21.838Z,1360
2017-05-03T10:39:32.698Z,1455
2017-05-03T10:40:43.236Z,1935
2017-05-03T10:41:54.148Z,3270
2017-05-03T10:43:05.050Z,3245
2017-05-03T10:44:15.753Z,3215
2017-05-03T10:45:26.694Z,3260
2017-05-03T10:46:37.653Z,3290
2017-05-03T10:47:48.551Z,2265
2017-05-03T10:48:59.073Z,2955
2017-05-03T10:50:09.395Z,3290
2017-05-03T10:51:20.255Z,3250
2017-05-03T10:52:31.152Z,3300
2017-05-03T10:53:42.064Z,3315
2017-05-03T10:54:52.597Z,3290
2017-05-03T10:56:03.509Z,3240
2017-05-03T10:57:14.418Z,3375
2017-05-03T10:58:24.672Z,3090
2017-05-03T10:59:35.529Z,2925
2017-05-03T11:00:46.376Z,2860
2017-05-03T11:01:57.823Z,2775
2017-05-03T11:03:08.733Z,2805
2017-05-03T11:04:19.674Z,2845
2017-05-03T11:05:30.648Z,2960
2017-05-03T11:06:41.177Z,2865
2017-05-03T11:07:52.347Z,2865
2017-05-03T11:09:03.238Z,2465
2017-05-03T11:10:14.176Z,2265
2017-05-03T11:11:25.101Z,2390
2017-05-03T11:12:35.967Z,2235
2017-05-03T11:13:46.797Z,2165
2017-05-03T11:14:57.655Z,2145
2017-05-03T11:16:08.202Z,2115
2017-05-03T11:17:19.073Z,2095
2017-05-03T11:18:29.988Z,2110
2017-05-03T11:19:41.181Z,2140
2017-05-03T11:20:52.261Z,2060
2017-05-03T11:22:02.747Z,2090
2017-05-03T11:23:13.675Z,2185
2017-05-03T11:24:24.522Z,2260
2017-05-03T11:25:35.734Z,2190
2017-05-03T11:26:46.628Z,2190
2017-05-03T11:27:57.478Z,2190
2017-05-03T11:29:08.399Z,1500
2017-05-03T11:30:19.247Z,2045
2017-05-03T11:31:30.360Z,2085
2017-05-03T11:32:41.224Z,2005
2017-05-03T11:33:52.125Z,2090
2017-05-03T11:35:02.727Z,2165
2017-05-03T11:36:13.608Z,2225
2017-05-03T11:37:24.775Z,2305
2017-05-03T11:38:35.700Z,2515
2017-05-03T11:39:46.656Z,2650
2017-05-03T11:40:56.857Z,2835
2017-05-03T11:42:07.715Z,2685
2017-05-03T11:43:18.873Z,2580
2017-05-03T11:44:29.736Z,2480
2017-05-03T11:45:39.928Z,2260
2017-05-03T11:46:50.547Z,2270
2017-05-03T11:48:01.401Z,2205
2017-05-03T11:49:12.572Z,2225
2017-05-03T11:50:23.497Z,2130
2017-05-03T11:51:34.351Z,2085
2017-05-03T11:52:45.241Z,2265
2017-05-03T11:53:56.126Z,2220
2017-05-03T11:55:07.304Z,2085
2017-05-03T11:56:18.157Z,2095
2017-05-03T11:57:28.381Z,1985
2017-05-03T11:58:38.850Z,2085
2017-05-03T11:59:49.741Z,2020
2017-05-03T12:01:01.061Z,2020
2017-05-03T12:02:11.659Z,2010
2017-05-03T12:03:22.551Z,1880
2017-05-03T12:04:33.236Z,1705
2017-05-03T12:05:44.088Z,1660
2017-05-03T12:06:55.253Z,1760
2017-05-03T12:08:06.157Z,1795
2017-05-03T12:09:17.041Z,1610
2017-05-03T12:10:27.937Z,1615
2017-05-03T12:11:38.047Z,1620
2017-05-03T12:12:48.909Z,1535
2017-05-03T12:13:59.899Z,1430
2017-05-03T12:15:10.298Z,1330
2017-05-03T12:16:21.422Z,1190
2017-05-03T12:17:31.967Z,1265
2017-05-03T12:18:43.206Z,1435
2017-05-03T12:19:54.086Z,1485
2017-05-03T12:21:04.313Z,1390
2017-05-03T12:22:15.425Z,1465
2017-05-03T12:23:25.974Z,1385
2017-05-03T12:24:37.146Z,1530
2017-05-03T12:25:48.000Z,1525
2017-05-03T12:26:58.840Z,1330
2017-05-03T12:28:10.456Z,1320
2017-05-03T12:29:21.341Z,1240
2017-05-03T12:30:32.542Z,1345
2017-05-03T12:31:43.465Z,1370
2017-05-03T12:32:54.444Z,1440
2017-05-03T12:34:05.298Z,1465
2017-05-03T12:35:16.168Z,1585
2017-05-03T12:36:27.554Z,1605
2017-05-03T12:37:37.960Z,1440
2017-05-03T12:38:48.041Z,1115
2017-05-03T12:39:58.929Z,1220
2017-05-03T12:41:09.789Z,1135
2017-05-03T12:42:20.885Z,1100
2017-05-03T12:43:31.761Z,1115
2017-05-03T12:44:42.288Z,1145
2017-05-03T12:45:53.127Z,1155
2017-05-03T12:47:03.977Z,1155
2017-05-03T12:48:15.060Z,1205
2017-05-03T12:49:25.941Z,1145
2017-05-03T12:50:36.785Z,1110
2017-05-03T12:51:47.640Z,940
2017-05-03T12:52:58.153Z,925
2017-05-03T12:54:09.333Z,915
2017-05-03T12:55:20.186Z,920
2017-05-03T12:56:30.694Z,945
2017-05-03T12:57:41.376Z,995
2017-05-03T12:58:52.226Z,1000
2017-05-03T13:00:02.993Z,1075
2017-05-03T13:01:13.845Z,1110
2017-05-03T13:02:24.743Z,1115
2017-05-03T13:03:35.414Z,1125
2017-05-03T13:04:46.311Z,1095
2017-05-03T13:05:57.126Z,1045
2017-05-03T13:07:08.038Z,1070
2017-05-03T13:08:18.913Z,1110
2017-05-03T13:09:29.307Z,1210
2017-05-03T13:10:39.818Z,1310
2017-05-03T13:11:50.629Z,1395
2017-05-03T13:13:01.477Z,1475
2017-05-03T13:14:12.362Z,1465
2017-05-03T13:15:23.263Z,1400
2017-05-03T13:16:34.214Z,1375
2017-05-03T13:17:44.882Z,1550
2017-05-03T13:18:55.445Z,1530
2017-05-03T13:20:06.388Z,1140
2017-05-03T13:21:17.365Z,1725
2017-05-03T13:22:27.886Z,1860
2017-05-03T13:23:38.991Z,1945
2017-05-03T13:24:49.857Z,1920
2017-05-03T13:26:00.809Z,1905
2017-05-03T13:27:11.932Z,1295
2017-05-03T13:28:22.870Z,2350
2017-05-03T13:29:33.231Z,2315
2017-05-03T13:30:44.118Z,1790
2017-05-03T13:31:55.021Z,1825
2017-05-03T13:33:05.097Z,1400
2017-05-03T13:34:15.975Z,1220
2017-05-03T13:35:27.072Z,1660
2017-05-03T13:36:37.595Z,2440
2017-05-03T13:37:48.497Z,2590
2017-05-03T13:38:59.539Z,2165
2017-05-03T13:40:09.805Z,2675
2017-05-03T13:41:21.016Z,965
2017-05-03T13:42:32.034Z,795
2017-05-03T13:43:42.877Z,870
2017-05-03T13:44:53.444Z,1150
2017-05-03T13:46:04.105Z,3510
2017-05-03T13:47:15.211Z,3135
2017-05-03T13:48:26.078Z,2635
2017-05-03T13:49:36.932Z,2565
2017-05-03T13:50:47.918Z,2880
2017-05-03T13:51:58.816Z,1300
2017-05-03T13:53:10.040Z,880
2017-05-03T13:54:20.434Z,825
2017-05-03T13:55:30.686Z,910
2017-05-03T13:56:41.230Z,1110
2017-05-03T13:57:51.339Z,3120
2017-05-03T13:59:02.191Z,3055
2017-05-03T14:00:13.039Z,2985
2017-05-03T14:01:23.949Z,3035
2017-05-03T14:02:34.884Z,1155
2017-05-03T14:03:45.737Z,2030
2017-05-03T14:04:56.560Z,2225
2017-05-03T14:06:07.484Z,1445
2017-05-03T14:07:18.342Z,2155
2017-05-03T14:08:29.201Z,2285
2017-05-03T14:09:39.835Z,2425
2017-05-03T14:10:51.065Z,2500
2017-05-03T14:12:01.623Z,2585
2017-05-03T14:13:11.683Z,2100
2017-05-03T14:14:22.582Z,2190
2017-05-03T14:15:33.444Z,2035
2017-05-03T14:16:44.094Z,2345
2017-05-03T14:17:55.247Z,990
2017-05-03T14:19:06.103Z,2875
2017-05-03T14:20:16.963Z,2830
2017-05-03T14:21:27.470Z,2605
2017-05-03T14:22:38.656Z,2415
2017-05-03T14:23:49.249Z,2490
2017-05-03T14:25:00.123Z,2300
2017-05-03T14:26:11.038Z,980
2017-05-03T14:27:21.903Z,1300
2017-05-03T14:28:32.506Z,995
2017-05-03T14:29:43.447Z,905
2017-05-03T14:30:54.409Z,2275
2017-05-03T14:32:05.039Z,2230
2017-05-03T14:33:15.905Z,850
2017-05-03T14:34:27.260Z,760
2017-05-03T14:35:38.207Z,2325
2017-05-03T14:36:49.100Z,1945
2017-05-03T14:38:00.169Z,1990
2017-05-03T14:39:11.099Z,2010
2017-05-03T14:40:22.315Z,1870
2017-05-03T14:41:32.722Z,1795
2017-05-03T14:42:43.599Z,1775
2017-05-03T14:43:54.023Z,1970
2017-05-03T14:45:04.925Z,2215
2017-05-03T14:46:16.056Z,2405
2017-05-03T14:47:27.007Z,2710
2017-05-03T14:48:37.855Z,2280
2017-05-03T14:49:48.721Z,1145
2017-05-03T14:50:58.789Z,1120
2017-05-03T14:52:09.571Z,580
2017-05-03T14:53:20.442Z,565
2017-05-03T14:54:31.316Z,580
2017-05-03T14:55:41.847Z,630
2017-05-03T14:56:52.759Z,655
2017-05-03T14:58:03.910Z,735
2017-05-03T14:59:14.760Z,810
2017-05-03T15:00:25.768Z,1115
2017-05-03T15:01:36.634Z,1165
2017-05-03T15:02:47.489Z,950
2017-05-03T15:03:58.317Z,860
2017-05-03T15:05:09.185Z,850
2017-05-03T15:06:20.095Z,825
2017-05-03T15:07:30.980Z,800
2017-05-03T15:08:41.501Z,770
2017-05-03T15:09:52.272Z,730
2017-05-03T15:11:03.155Z,730
2017-05-03T15:12:14.007Z,720
2017-05-03T15:13:24.855Z,735
2017-05-03T15:14:35.761Z,695
2017-05-03T15:15:47.051Z,665
2017-05-03T15:16:57.933Z,695
2017-05-03T15:18:08.923Z,695
2017-05-03T15:19:19.124Z,670
2017-05-03T15:20:30.173Z,665
2017-05-03T15:21:41.401Z,660
2017-05-03T15:22:52.257Z,620
2017-05-03T15:24:03.198Z,480
2017-05-03T15:25:14.224Z,385
2017-05-03T15:26:25.109Z,325
2017-05-03T15:27:36.280Z,305
2017-05-03T15:28:47.011Z,315
2017-05-03T15:29:57.589Z,320
2017-05-03T15:31:08.503Z,330
2017-05-03T15:32:19.372Z,330
2017-05-03T15:33:30.550Z,330
2017-05-03T15:34:40.872Z,340
2017-05-03T15:35:51.475Z,340
2017-05-03T15:37:02.335Z,355
2017-05-03T15:38:13.249Z,370
2017-05-03T15:39:24.362Z,385
2017-05-03T15:40:35.111Z,395
2017-05-03T15:41:46.038Z,390
2017-05-03T15:42:56.641Z,390
2017-05-03T15:44:07.630Z,395
2017-05-03T15:45:19.066Z,390
2017-05-03T15:46:29.971Z,390
2017-05-03T15:47:40.836Z,385
2017-05-03T15:48:51.824Z,380
2017-05-03T15:50:02.692Z,375
2017-05-03T15:51:13.041Z,375
2017-05-03T15:52:24.027Z,365
2017-05-03T15:53:34.931Z,340
2017-05-03T15:54:45.873Z,315
2017-05-03T15:55:56.763Z,300
2017-05-03T15:57:07.720Z,290
2017-05-03T15:58:18.304Z,280
2017-05-03T15:59:29.156Z,265
2017-05-03T16:00:40.029Z,245
2017-05-03T16:01:50.991Z,230
2017-05-03T16:03:02.377Z,225
2017-05-03T16:04:12.928Z,220
2017-05-03T16:05:23.795Z,220
2017-05-03T16:06:34.777Z,220
2017-05-03T16:07:45.971Z,225
2017-05-03T16:09:02.533Z,230
2017-05-03T16:10:13.912Z,230
2017-05-03T16:11:24.802Z,230
2017-05-03T16:12:35.688Z,235
2017-05-03T16:13:46.553Z,220
2017-05-03T16:14:57.930Z,180
2017-05-03T16:16:08.781Z,155